Time;durP1;ratioP1;P1;durP2;ratioP2;P2;SDS_P1;SDS_P2;PMS_P1;PMS_P2;Temp;Humidity;BMP_temperature;BMP_pressure;BME280_temperature;BME280_humidity;BME280_pressure;Samples;Min_cycle;Max_cycle;Signal;HPM_P1;HPM_P2
2024/02/23 00:01:49;;;;;;;1.60;1.30;;;;;;;9.78;60.40;98374.03;5085231;28;20209;-77
2024/02/23 00:04:16;;;;;;;5.73;0.60;;;;;;;9.83;59.96;98366.84;5092632;28;20235;-78
2024/02/23 00:06:42;;;;;;;1.83;0.60;;;;;;;9.65;59.99;98407.66;5092921;28;20223;-77
2024/02/23 00:09:09;;;;;;;1.97;0.80;;;;;;;9.72;59.75;98434.25;5092997;28;20208;-77
2024/02/23 00:11:39;;;;;;;4.97;0.60;;;;;;;9.61;59.69;98445.16;5093316;28;20208;-77
2024/02/23 00:14:08;;;;;;;1.60;0.70;;;;;;;9.33;59.96;98449.06;5093864;28;20327;-77
2024/02/23 00:16:38;;;;;;;3.57;1.00;;;;;;;9.50;61.70;98430.06;5092342;28;20236;-77
2024/02/23 00:19:04;;;;;;;2.07;0.50;;;;;;;9.60;61.21;98395.78;5093551;28;20360;-78
2024/02/23 00:21:31;;;;;;;3.30;0.80;;;;;;;9.59;60.72;98413.16;5092381;28;20261;-76
2024/02/23 00:23:57;;;;;;;1.63;0.70;;;;;;;9.64;60.80;98411.19;5092303;28;20659;-75
2024/02/23 00:26:23;;;;;;;1.27;0.40;;;;;;;9.24;59.55;98422.63;5091564;28;20204;-76
2024/02/23 00:28:50;;;;;;;2.37;0.70;;;;;;;9.40;59.38;98433.19;5091689;28;20261;-77
2024/02/23 00:31:17;;;;;;;0.73;0.50;;;;;;;9.62;59.36;98453.84;5090874;28;20265;-77
2024/02/23 00:33:44;;;;;;;2.57;0.50;;;;;;;9.62;59.95;98453.84;5086034;28;20220;-77
2024/02/23 00:36:10;;;;;;;1.20;0.60;;;;;;;9.38;57.45;98464.50;5091466;28;20253;-76
2024/02/23 00:38:37;;;;;;;0.40;0.40;;;;;;;9.64;58.56;98446.81;5091411;28;20648;-78
2024/02/23 00:41:03;;;;;;;2.87;0.40;;;;;;;9.69;59.12;98481.28;5091469;28;20211;-73
2024/02/23 00:43:30;;;;;;;1.67;0.30;;;;;;;9.71;58.04;98479.44;5092359;28;20223;-76
2024/02/23 00:45:56;;;;;;;1.70;0.70;;;;;;;9.62;58.91;98505.94;5092439;28;20226;-76
2024/02/23 00:48:24;;;;;;;1.63;0.67;;;;;;;9.64;59.04;98506.72;5091939;28;20253;-76
2024/02/23 00:50:50;;;;;;;0.63;0.30;;;;;;;9.56;59.22;98509.69;5092568;28;20269;-76
2024/02/23 00:53:17;;;;;;;2.20;0.50;;;;;;;9.53;59.11;98507.19;5091899;28;20284;-75
2024/02/23 00:55:43;;;;;;;2.40;0.40;;;;;;;9.59;58.95;98503.47;5091586;28;20239;-76
2024/02/23 00:58:10;;;;;;;0.83;0.40;;;;;;;9.62;59.20;98513.75;5091824;28;20275;-75
2024/02/23 01:00:36;;;;;;;1.30;0.37;;;;;;;9.38;59.04;98524.38;5091953;28;20278;-76
2024/02/23 01:03:02;;;;;;;0.80;0.30;;;;;;;9.53;59.27;98489.84;5091273;28;20636;-76
2024/02/23 01:05:30;;;;;;;1.23;0.60;;;;;;;9.50;58.69;98516.00;5091269;28;20675;-76
2024/02/23 01:07:56;;;;;;;1.23;0.40;;;;;;;9.54;58.84;98532.34;5090711;28;20209;-75
2024/02/23 01:10:23;;;;;;;0.50;0.40;;;;;;;9.67;58.95;98541.31;5091355;28;20205;-76
2024/02/23 01:12:49;;;;;;;0.97;0.50;;;;;;;9.54;58.16;98543.59;5082230;28;20271;-75
2024/02/23 01:15:15;;;;;;;1.30;0.40;;;;;;;9.37;58.02;98566.94;5091493;28;20211;-75
2024/02/23 01:17:42;;;;;;;0.83;0.60;;;;;;;9.23;57.90;98608.38;5082697;28;20268;-76
2024/02/23 01:20:09;;;;;;;2.10;0.50;;;;;;;9.41;59.13;98578.91;5090941;28;20207;-76
2024/02/23 01:22:37;;;;;;;0.47;0.40;;;;;;;9.40;59.12;98586.81;5090166;28;20269;-74
2024/02/23 01:25:04;;;;;;;0.97;0.40;;;;;;;9.06;58.65;98594.31;5091174;28;20250;-76
2024/02/23 01:27:30;;;;;;;0.20;0.20;;;;;;;9.01;59.91;98626.66;5090398;28;20698;-77
2024/02/23 01:29:56;;;;;;;0.23;0.23;;;;;;;9.10;60.20;98628.88;5089259;28;20204;-76
2024/02/23 01:32:23;;;;;;;0.20;0.20;;;;;;;9.00;59.97;98611.94;5089250;28;20204;-77
2024/02/23 01:34:49;;;;;;;0.30;0.30;;;;;;;8.92;60.05;98631.34;5082637;28;20230;-76
2024/02/23 01:37:15;;;;;;;0.33;0.30;;;;;;;9.04;61.28;98623.91;5086662;28;20257;-77
2024/02/23 01:39:43;;;;;;;0.20;0.20;;;;;;;8.87;61.01;98580.38;5090730;28;20723;-77
2024/02/23 01:42:10;;;;;;;0.53;0.40;;;;;;;8.51;62.65;98615.66;5090567;28;20200;-76
2024/02/23 01:44:36;;;;;;;0.30;0.30;;;;;;;8.40;66.19;98557.16;5091047;28;20224;-77
2024/02/23 01:47:03;;;;;;;1.23;0.20;;;;;;;8.42;67.33;98506.81;5091101;28;20275;-76
2024/02/23 01:49:31;;;;;;;0.30;0.30;;;;;;;8.40;67.81;98480.00;5083281;28;20196;-76
2024/02/23 01:51:58;;;;;;;0.20;0.20;;;;;;;8.43;68.30;98429.69;5090268;28;20208;-77
2024/02/23 01:54:25;;;;;;;0.30;0.30;;;;;;;8.43;67.30;98446.13;5091340;28;20647;-77
2024/02/23 01:56:53;;;;;;;0.30;0.30;;;;;;;8.29;68.08;98456.22;5090095;28;20273;-76
2024/02/23 01:59:20;;;;;;;0.30;0.30;;;;;;;8.12;67.75;98467.28;5089717;28;20231;-75
2024/02/23 02:01:47;;;;;;;0.30;0.30;;;;;;;7.99;71.18;98442.72;5088504;28;20571;-76
2024/02/23 02:04:13;;;;;;;0.40;0.40;;;;;;;8.07;72.95;98410.31;5091540;28;20276;-77
2024/02/23 02:06:40;;;;;;;0.30;0.30;;;;;;;7.58;76.71;98331.81;5090836;28;20201;-77
2024/02/23 02:09:07;;;;;;;0.40;0.40;;;;;;;7.19;78.05;98259.84;5089965;28;20208;-76
2024/02/23 02:11:33;;;;;;;0.33;0.33;;;;;;;6.96;78.69;98216.69;5089208;28;20245;-76
2024/02/23 02:14:01;;;;;;;0.40;0.40;;;;;;;6.81;80.40;98187.03;5090193;28;20710;-76
2024/02/23 02:16:28;;;;;;;0.50;0.40;;;;;;;7.18;80.06;98125.88;5088881;28;20208;-78
2024/02/23 02:18:54;;;;;;;0.40;0.40;;;;;;;7.16;79.94;98109.53;5090216;28;20200;-76
2024/02/23 02:21:23;;;;;;;0.40;0.40;;;;;;;7.24;79.92;98109.19;5079724;28;20204;-77
2024/02/23 02:23:49;;;;;;;0.50;0.50;;;;;;;6.92;81.92;98091.50;5089574;28;20228;-77
2024/02/23 02:26:16;;;;;;;0.40;0.40;;;;;;;6.69;81.56;98063.09;5087268;28;20212;-75
2024/02/23 02:28:42;;;;;;;0.63;0.40;;;;;;;6.77;80.91;98053.22;5089346;28;20197;-76
2024/02/23 02:31:10;;;;;;;0.43;0.43;;;;;;;6.79;80.89;98063.53;5082228;28;20672;-74
2024/02/23 02:33:36;;;;;;;0.37;0.37;;;;;;;6.81;80.52;98085.91;5090334;28;20227;-78
2024/02/23 02:36:03;;;;;;;0.53;0.40;;;;;;;6.58;79.44;98107.59;5090250;28;20204;-78
2024/02/23 02:38:29;;;;;;;0.43;0.43;;;;;;;6.81;79.83;98126.56;5090771;28;20285;-75
2024/02/23 02:40:57;;;;;;;0.20;0.20;;;;;;;6.73;80.78;98122.50;5083001;28;20649;-77
2024/02/23 02:43:23;;;;;;;0.30;0.30;;;;;;;6.76;80.67;98137.13;5089106;28;20311;-76
2024/02/23 02:45:49;;;;;;;0.30;0.30;;;;;;;6.53;82.03;98143.22;5090715;28;20707;-75
2024/02/23 02:48:17;;;;;;;0.30;0.30;;;;;;;6.63;82.91;98091.84;5089042;28;20253;-77
2024/02/23 02:50:43;;;;;;;0.20;0.20;;;;;;;6.62;82.05;98105.69;5083209;28;20233;-77
2024/02/23 02:53:10;;;;;;;0.20;0.20;;;;;;;6.63;82.17;98115.19;5092368;28;20623;-73
2024/02/23 02:55:36;;;;;;;0.30;0.30;;;;;;;6.63;79.82;98149.72;5093491;28;20200;-76
2024/02/23 02:58:02;;;;;;;0.30;0.30;;;;;;;6.82;79.97;98185.25;5096241;28;20767;-76
2024/02/23 03:00:30;;;;;;;0.83;0.40;;;;;;;6.70;78.06;98212.50;5096499;28;20204;-75
2024/02/23 03:02:57;;;;;;;0.30;0.30;;;;;;;6.68;78.35;98224.69;5095251;28;20231;-77
2024/02/23 03:05:25;;;;;;;0.87;0.50;;;;;;;6.74;77.85;98246.06;5094686;28;20192;-76
2024/02/23 03:07:51;;;;;;;1.40;0.30;;;;;;;6.95;76.24;98267.69;5094055;28;20534;-75
2024/02/23 03:10:17;;;;;;;0.67;0.40;;;;;;;6.96;76.19;98305.72;5086400;28;20234;-76
2024/02/23 03:12:44;;;;;;;0.63;0.47;;;;;;;7.05;75.18;98343.41;5093033;28;20261;-76
2024/02/23 03:15:11;;;;;;;0.63;0.47;;;;;;;6.83;75.54;98364.13;5093880;28;20743;-76
2024/02/23 03:17:37;;;;;;;0.90;0.50;;;;;;;6.74;75.76;98378.28;5093286;28;20224;-76
2024/02/23 03:20:08;;;;;;;0.40;0.40;;;;;;;6.97;74.95;98387.78;5086330;28;20687;-77
2024/02/23 03:22:36;;;;;;;0.50;0.40;;;;;;;7.06;73.84;98401.34;5085236;28;20196;-76
2024/02/23 03:25:07;;;;;;;1.60;0.57;;;;;;;7.09;73.39;98430.59;5093270;28;20211;-76
2024/02/23 03:27:35;;;;;;;0.50;0.50;;;;;;;6.90;72.30;98456.38;5092926;28;20201;-75
2024/02/23 03:30:01;;;;;;;1.33;0.60;;;;;;;6.86;70.97;98485.06;5094073;28;20659;-77
2024/02/23 03:32:28;;;;;;;0.40;0.40;;;;;;;7.03;71.45;98510.41;5093558;28;21011;-77
2024/02/23 03:34:54;;;;;;;0.93;0.70;;;;;;;7.06;71.24;98531.06;5093164;28;20266;-76
2024/02/23 03:37:20;;;;;;;0.40;0.40;;;;;;;7.00;70.65;98558.06;5091965;28;20224;-76
2024/02/23 03:39:49;;;;;;;0.80;0.53;;;;;;;6.71;70.00;98572.84;5092173;28;20258;-75
2024/02/23 03:42:15;;;;;;;0.60;0.60;;;;;;;6.93;70.93;98575.56;5091954;28;20220;-77
2024/02/23 03:44:42;;;;;;;0.63;0.60;;;;;;;6.74;70.35;98596.09;5092072;28;20361;-75
2024/02/23 03:47:09;;;;;;;1.03;0.90;;;;;;;6.98;70.01;98609.13;5092222;28;20607;-77
2024/02/23 03:49:35;;;;;;;0.93;0.70;;;;;;;6.97;69.10;98620.41;5092895;28;20197;-77
2024/02/23 03:52:01;;;;;;;1.00;1.00;;;;;;;7.10;69.58;98632.06;5092940;28;20632;-76
2024/02/23 03:54:27;;;;;;;0.77;0.77;;;;;;;7.04;70.35;98632.28;5092585;28;20651;-77
2024/02/23 03:56:54;;;;;;;1.43;1.33;;;;;;;6.86;69.09;98648.47;5092062;28;20204;-78
2024/02/23 03:59:20;;;;;;;4.63;1.57;;;;;;;6.86;69.62;98657.06;5092796;28;20224;-76
2024/02/23 04:01:47;;;;;;;1.47;0.63;;;;;;;6.84;69.35;98664.06;5092534;28;20204;-76
2024/02/23 04:04:13;;;;;;;1.30;0.80;;;;;;;6.84;69.93;98668.38;5092575;28;20227;-76
2024/02/23 04:06:39;;;;;;;2.93;0.90;;;;;;;6.76;69.35;98676.44;5084386;28;20207;-78
2024/02/23 04:09:06;;;;;;;0.97;0.97;;;;;;;6.99;69.56;98677.41;5092153;28;20265;-74
2024/02/23 04:11:33;;;;;;;4.40;4.00;;;;;;;6.80;69.33;98688.41;5091592;28;20206;-77
2024/02/23 04:14:01;;;;;;;3.33;3.03;;;;;;;6.91;68.75;98686.28;5092446;28;20653;-78
2024/02/23 04:16:27;;;;;;;1.10;0.93;;;;;;;6.90;68.30;98694.16;5091862;28;20212;-77
2024/02/23 04:18:54;;;;;;;2.03;0.90;;;;;;;6.93;68.17;98707.00;5092255;28;20674;-77
2024/02/23 04:21:21;;;;;;;1.70;1.00;;;;;;;7.03;68.36;98713.56;5092334;28;20199;-76
2024/02/23 04:23:47;;;;;;;1.27;0.70;;;;;;;6.96;67.95;98722.47;5092334;28;20220;-77
2024/02/23 04:26:14;;;;;;;0.80;0.73;;;;;;;7.05;68.23;98716.13;5091288;28;20244;-75
2024/02/23 04:28:40;;;;;;;0.97;0.70;;;;;;;7.01;68.03;98732.69;5083421;28;20196;-77
2024/02/23 04:31:09;;;;;;;1.03;0.87;;;;;;;7.11;68.20;98719.38;5091848;28;20693;-77
2024/02/23 04:33:35;;;;;;;2.20;0.83;;;;;;;7.04;68.47;98750.78;5091524;28;20779;-76
2024/02/23 04:36:02;;;;;;;0.80;0.70;;;;;;;7.14;67.70;98741.78;5091896;28;20291;-77
2024/02/23 04:38:29;;;;;;;1.20;0.73;;;;;;;7.11;67.13;98755.69;5091655;28;20862;-76
2024/02/23 04:40:56;;;;;;;1.03;0.80;;;;;;;7.22;67.83;98754.53;5090713;28;20732;-77
2024/02/23 04:43:22;;;;;;;1.60;0.70;;;;;;;7.20;68.17;98761.50;5091822;28;20224;-77
2024/02/23 04:45:49;;;;;;;0.70;0.70;;;;;;;7.12;68.00;98764.34;5091934;28;20216;-77
2024/02/23 04:48:16;;;;;;;0.70;0.70;;;;;;;7.09;69.05;98754.88;5091328;28;20555;-75
2024/02/23 04:50:43;;;;;;;0.73;0.73;;;;;;;7.17;68.11;98757.25;5083862;28;20253;-75
2024/02/23 04:53:09;;;;;;;0.80;0.77;;;;;;;7.20;68.09;98762.34;5091582;28;20273;-76
2024/02/23 04:55:35;;;;;;;1.30;0.70;;;;;;;7.39;67.63;98777.31;5090600;28;20204;-76
2024/02/23 04:58:02;;;;;;;0.93;0.60;;;;;;;7.31;68.05;98782.75;5091449;28;20615;-76
2024/02/23 05:00:33;;;;;;;1.87;0.80;;;;;;;7.34;67.35;98787.84;5091779;28;20205;-75
2024/02/23 05:02:59;;;;;;;1.20;0.60;;;;;;;7.31;67.05;98793.13;5091375;28;20315;-76
2024/02/23 05:05:27;;;;;;;1.47;0.63;;;;;;;6.99;65.50;98853.81;5090551;28;20199;-77
2024/02/23 05:07:53;;;;;;;1.37;0.50;;;;;;;6.95;66.09;98861.66;5091531;28;20291;-77
2024/02/23 05:10:19;;;;;;;0.60;0.50;;;;;;;7.21;66.13;98861.78;5091419;28;20208;-76
2024/02/23 05:12:46;;;;;;;2.23;0.70;;;;;;;7.17;66.42;98863.63;5091245;28;20666;-77
2024/02/23 05:15:12;;;;;;;0.97;0.57;;;;;;;7.06;64.54;98882.13;5091027;28;20265;-76
2024/02/23 05:17:38;;;;;;;2.43;1.10;;;;;;;7.03;65.68;98897.78;5090665;28;20204;-76
2024/02/23 05:20:08;;;;;;;2.57;0.60;;;;;;;7.23;65.21;98894.56;5090507;28;20204;-76
2024/02/23 05:22:36;;;;;;;2.00;0.80;;;;;;;7.40;65.92;98904.47;5091016;28;20201;-76
2024/02/23 05:25:03;;;;;;;2.07;0.73;;;;;;;7.46;65.50;98904.25;5085483;28;20559;-75
2024/02/23 05:27:29;;;;;;;2.10;0.70;;;;;;;7.27;64.19;98932.50;5086182;28;20254;-76
2024/02/23 05:29:56;;;;;;;1.17;0.70;;;;;;;7.46;64.31;98935.41;5090394;28;20211;-76
2024/02/23 05:32:22;;;;;;;0.60;0.60;;;;;;;7.40;64.31;98958.13;5082764;28;20201;-75
2024/02/23 05:34:51;;;;;;;1.20;0.77;;;;;;;7.39;64.18;98966.78;5090745;28;20256;-75
2024/02/23 05:37:17;;;;;;;1.83;0.80;;;;;;;7.23;64.53;98969.00;5090505;28;20204;-76
2024/02/23 05:39:45;;;;;;;1.33;0.60;;;;;;;7.13;63.56;98973.59;5090631;28;20216;-76
2024/02/23 05:42:12;;;;;;;4.10;0.73;;;;;;;6.99;63.17;98999.09;5090532;28;20200;-76
2024/02/23 05:44:39;;;;;;;4.10;0.90;;;;;;;7.13;63.73;99000.38;5082748;28;20249;-76
2024/02/23 05:47:05;;;;;;;1.63;0.70;;;;;;;7.23;63.72;98994.94;5081467;28;20548;-76
2024/02/23 05:49:32;;;;;;;2.20;0.80;;;;;;;7.02;62.95;99010.22;5090494;28;20732;-77
2024/02/23 05:51:58;;;;;;;1.20;0.53;;;;;;;6.63;63.55;99031.13;5091361;28;20204;-76
2024/02/23 05:54:24;;;;;;;1.73;0.70;;;;;;;6.90;64.43;99016.59;5090466;28;20220;-76
2024/02/23 05:56:52;;;;;;;1.70;0.73;;;;;;;7.11;63.69;99014.31;5089722;28;20547;-75
2024/02/23 05:59:18;;;;;;;0.93;0.60;;;;;;;6.90;62.73;99018.34;5090711;28;20640;-76
2024/02/23 06:01:44;;;;;;;1.40;0.80;;;;;;;7.06;63.56;99019.63;5090517;28;20251;-75
2024/02/23 06:04:11;;;;;;;2.20;0.80;;;;;;;7.11;63.56;99028.13;5090846;28;20225;-76
2024/02/23 06:06:37;;;;;;;1.63;0.60;;;;;;;7.14;63.02;99035.00;5090181;28;20274;-76
2024/02/23 06:09:05;;;;;;;1.53;0.70;;;;;;;7.10;63.26;99049.78;5090619;28;20265;-77
2024/02/23 06:11:31;;;;;;;1.53;0.63;;;;;;;7.29;64.14;99042.31;5089566;28;20250;-76
2024/02/23 06:13:59;;;;;;;1.30;0.80;;;;;;;7.15;62.96;99040.16;5090700;28;20258;-76
2024/02/23 06:16:25;;;;;;;2.10;0.60;;;;;;;6.95;63.91;99053.63;5089535;28;20686;-76
2024/02/23 06:18:52;;;;;;;1.60;0.70;;;;;;;6.82;63.74;99057.47;5090030;28;20251;-77
2024/02/23 06:21:19;;;;;;;1.03;0.60;;;;;;;7.03;65.08;99044.81;5090650;28;20201;-76
2024/02/23 06:23:45;;;;;;;3.27;1.00;;;;;;;7.16;64.85;99028.84;5090105;28;20247;-77
2024/02/23 06:26:12;;;;;;;2.67;0.60;;;;;;;6.97;63.30;99041.47;5090450;28;20204;-76
2024/02/23 06:28:41;;;;;;;2.07;0.70;;;;;;;7.10;63.93;99054.97;5094666;28;20253;-74
2024/02/23 06:31:09;;;;;;;3.97;0.90;;;;;;;7.17;64.43;99050.47;5094864;28;20203;-76
2024/02/23 06:33:36;;;;;;;1.20;0.73;;;;;;;7.13;63.79;99064.41;5093949;28;20293;-77
2024/02/23 06:36:03;;;;;;;1.50;0.70;;;;;;;7.24;63.72;99064.13;5094299;28;20204;-76
2024/02/23 06:38:29;;;;;;;3.30;0.50;;;;;;;7.28;64.10;99065.75;5093900;28;20219;-76
2024/02/23 06:40:56;;;;;;;1.00;0.60;;;;;;;7.28;63.74;99079.56;5093422;28;20893;-76
2024/02/23 06:43:23;;;;;;;1.33;0.60;;;;;;;7.10;63.28;99093.91;5094200;28;20225;-76
2024/02/23 06:45:49;;;;;;;0.83;0.57;;;;;;;7.17;63.61;99104.97;5093789;28;20204;-76
2024/02/23 06:48:17;;;;;;;1.57;1.43;;;;;;;7.20;63.65;99084.13;5093463;28;20197;-76
2024/02/23 06:50:43;;;;;;;2.10;0.80;;;;;;;7.20;62.93;99101.44;5093445;28;20208;-76
2024/02/23 06:53:13;;;;;;;2.73;0.67;;;;;;;7.08;64.28;99100.88;5094114;28;20286;-74
2024/02/23 06:55:39;;;;;;;1.67;0.43;;;;;;;7.14;62.91;99112.84;5092907;28;20204;-76
2024/02/23 06:58:07;;;;;;;3.17;0.70;;;;;;;7.10;62.51;99122.44;5086916;28;20207;-73
2024/02/23 07:00:33;;;;;;;1.47;0.50;;;;;;;7.19;62.68;99112.72;5093537;28;20212;-75
2024/02/23 07:03:03;;;;;;;7.57;1.37;;;;;;;7.09;62.21;99127.66;5093238;28;20224;-76
2024/02/23 07:05:31;;;;;;;2.43;1.20;;;;;;;7.15;63.17;99130.09;5093364;28;20304;-77
2024/02/23 07:07:57;;;;;;;1.50;0.63;;;;;;;7.18;62.47;99147.34;5093723;28;20677;-76
2024/02/23 07:10:25;;;;;;;2.47;0.60;;;;;;;7.17;61.92;99167.22;5093589;28;20204;-76
2024/02/23 07:12:53;;;;;;;1.27;0.60;;;;;;;7.08;61.77;99181.31;5093000;28;20325;-76
2024/02/23 07:15:19;;;;;;;0.93;0.53;;;;;;;6.86;60.66;99191.38;5093801;28;20204;-76
2024/02/23 07:17:45;;;;;;;1.70;0.63;;;;;;;7.13;62.11;99192.41;5092887;28;20214;-76
2024/02/23 07:20:12;;;;;;;1.83;0.70;;;;;;;6.96;61.26;99211.00;5092920;28;20274;-76
2024/02/23 07:22:40;;;;;;;3.30;0.87;;;;;;;6.85;61.43;99228.53;5085222;28;20205;-75
2024/02/23 07:25:07;;;;;;;1.30;0.60;;;;;;;7.13;61.87;99214.91;5093072;28;20664;-76
2024/02/23 07:27:33;;;;;;;2.33;0.90;;;;;;;7.08;61.36;99216.78;5092823;28;20234;-76
2024/02/23 07:30:00;;;;;;;1.47;0.60;;;;;;;7.01;60.12;99223.84;5093646;28;20274;-76
2024/02/23 07:32:26;;;;;;;2.13;0.63;;;;;;;7.18;61.12;99230.41;5092949;28;20731;-76
2024/02/23 07:34:53;;;;;;;3.27;0.90;;;;;;;7.28;60.60;99239.66;5092774;28;20285;-76
2024/02/23 07:37:19;;;;;;;1.37;0.87;;;;;;;7.43;61.23;99235.81;5092274;28;20208;-77
2024/02/23 07:39:47;;;;;;;1.50;0.47;;;;;;;7.49;61.93;99243.44;5093154;28;20273;-77
2024/02/23 07:42:14;;;;;;;1.83;0.70;;;;;;;7.54;61.16;99244.19;5092567;28;20800;-77
2024/02/23 07:44:40;;;;;;;5.10;0.70;;;;;;;7.59;61.52;99257.91;5093444;28;20251;-76
2024/02/23 07:47:07;;;;;;;1.03;0.53;;;;;;;7.61;61.09;99245.72;5092417;28;20659;-77
2024/02/23 07:49:33;;;;;;;2.83;0.90;;;;;;;7.66;60.59;99259.44;5092893;28;20200;-77
2024/02/23 07:51:59;;;;;;;2.00;0.70;;;;;;;7.68;60.36;99280.19;5093880;28;20204;-76
2024/02/23 07:54:26;;;;;;;1.97;0.70;;;;;;;7.74;59.98;99282.63;5091929;28;20280;-75
2024/02/23 07:56:53;;;;;;;5.00;1.00;;;;;;;7.63;60.38;99308.88;5091937;28;20200;-76
2024/02/23 07:59:20;;;;;;;0.83;0.63;;;;;;;7.79;60.08;99316.25;5093196;28;20220;-76
2024/02/23 08:01:46;;;;;;;1.60;0.90;;;;;;;7.52;59.79;99340.28;5091276;28;20567;-75
2024/02/23 08:04:13;;;;;;;1.07;0.60;;;;;;;7.34;59.56;99343.34;5091935;28;20224;-75
2024/02/23 08:06:39;;;;;;;1.43;0.60;;;;;;;7.59;60.93;99334.94;5083823;28;20211;-75
2024/02/23 08:09:07;;;;;;;1.50;0.53;;;;;;;7.64;60.32;99328.75;5092577;28;20273;-76
2024/02/23 08:11:33;;;;;;;1.90;0.60;;;;;;;7.67;60.51;99323.50;5092529;28;20219;-75
2024/02/23 08:14:02;;;;;;;0.87;0.57;;;;;;;7.41;59.14;99344.03;5092682;28;20237;-76
2024/02/23 08:16:29;;;;;;;1.47;0.53;;;;;;;7.49;60.32;99331.72;5091444;28;20208;-76
2024/02/23 08:18:55;;;;;;;2.53;0.67;;;;;;;7.55;60.65;99322.03;5092127;28;20216;-75
2024/02/23 08:21:21;;;;;;;1.53;0.60;;;;;;;7.64;60.83;99322.69;5091531;28;20227;-77
2024/02/23 08:23:48;;;;;;;3.03;0.60;;;;;;;7.59;59.54;99335.81;5091993;28;20224;-76
2024/02/23 08:26:15;;;;;;;2.20;0.53;;;;;;;7.30;59.48;99346.88;5090903;28;20197;-74
2024/02/23 08:28:41;;;;;;;3.10;0.60;;;;;;;7.52;60.08;99339.44;5091900;28;20203;-75
2024/02/23 08:31:09;;;;;;;1.50;0.50;;;;;;;7.70;58.96;99351.13;5091702;28;20208;-75
2024/02/23 08:33:35;;;;;;;2.47;0.63;;;;;;;7.60;58.89;99370.41;5091851;28;20228;-76
2024/02/23 08:36:01;;;;;;;1.80;0.50;;;;;;;7.42;59.35;99375.16;5087100;28;20204;-77
2024/02/23 08:38:28;;;;;;;1.13;0.40;;;;;;;7.45;58.83;99367.31;5087008;28;20276;-75
2024/02/23 08:40:54;;;;;;;2.13;0.43;;;;;;;7.59;59.67;99369.56;5091255;28;20208;-76
2024/02/23 08:43:20;;;;;;;2.20;0.40;;;;;;;7.73;59.31;99353.63;5091300;28;20265;-76
2024/02/23 08:45:47;;;;;;;3.30;0.70;;;;;;;7.69;58.50;99355.47;5090851;28;20196;-76
2024/02/23 08:48:14;;;;;;;0.73;0.40;;;;;;;7.71;58.74;99356.28;5085961;28;20205;-78
2024/02/23 08:50:41;;;;;;;2.17;0.40;;;;;;;7.61;58.45;99365.19;5087173;28;20662;-76
2024/02/23 08:53:08;;;;;;;2.87;1.00;;;;;;;7.51;57.55;99384.47;5091658;28;20356;-76
2024/02/23 08:55:34;;;;;;;3.00;0.60;;;;;;;7.72;58.03;99388.28;5090439;28;20220;-76
2024/02/23 08:58:00;;;;;;;1.20;0.40;;;;;;;7.63;57.23;99396.31;5091410;28;20678;-75
2024/02/23 09:00:27;;;;;;;2.43;0.57;;;;;;;7.73;57.56;99410.78;5090837;28;20619;-75
2024/02/23 09:02:53;;;;;;;1.40;0.37;;;;;;;7.63;57.59;99430.06;5091098;28;20360;-76
2024/02/23 09:05:21;;;;;;;2.83;0.50;;;;;;;7.61;57.59;99437.91;5091570;28;20205;-76
2024/02/23 09:07:47;;;;;;;0.90;0.40;;;;;;;7.85;58.10;99438.19;5082581;28;20197;-75
2024/02/23 09:10:14;;;;;;;2.17;0.60;;;;;;;7.73;57.39;99440.22;5090724;28;20192;-76
2024/02/23 09:12:40;;;;;;;2.33;0.60;;;;;;;7.98;58.32;99433.56;5090231;28;20447;-76
2024/02/23 09:15:07;;;;;;;1.30;0.40;;;;;;;8.16;58.75;99430.50;5091621;28;20200;-76
2024/02/23 09:17:34;;;;;;;1.00;0.47;;;;;;;8.09;56.62;99448.00;5090399;28;20201;-76
2024/02/23 09:20:00;;;;;;;1.23;0.60;;;;;;;8.12;56.64;99478.25;5090815;28;20216;-76
2024/02/23 09:22:28;;;;;;;1.47;0.60;;;;;;;8.03;57.10;99491.50;5091292;28;20196;-76
2024/02/23 09:24:56;;;;;;;4.33;0.40;;;;;;;8.20;57.83;99472.88;5090444;28;20270;-76
2024/02/23 09:27:22;;;;;;;1.07;0.47;;;;;;;8.06;57.93;99481.88;5089548;28;20196;-74
2024/02/23 09:29:49;;;;;;;1.13;0.53;;;;;;;8.25;57.22;99474.47;5090411;28;20739;-75
2024/02/23 09:32:15;;;;;;;1.77;0.50;;;;;;;8.13;57.31;99480.84;5091016;28;20257;-76
2024/02/23 09:34:42;;;;;;;1.97;0.30;;;;;;;8.26;58.03;99470.97;5091086;28;20224;-76
2024/02/23 09:37:08;;;;;;;1.87;0.83;;;;;;;8.58;57.42;99447.66;5090987;28;20681;-76
2024/02/23 09:39:36;;;;;;;1.13;0.40;;;;;;;8.52;57.22;99469.47;5090925;28;20224;-75
2024/02/23 09:42:02;;;;;;;0.97;0.50;;;;;;;8.60;57.22;99470.13;5090066;28;20204;-75
2024/02/23 09:44:34;;;;;;;0.83;0.50;;;;;;;8.73;57.90;99465.47;5090658;28;20761;-77
2024/02/23 09:47:07;;;;;;;1.67;0.40;;;;;;;8.69;57.84;99459.50;5090472;28;20212;-76
2024/02/23 09:49:36;;;;;;;2.00;0.50;;;;;;;8.51;57.87;99468.63;5090295;28;20192;-77
2024/02/23 09:52:03;;;;;;;1.27;0.43;;;;;;;8.58;57.34;99465.88;5091180;28;20257;-77
2024/02/23 09:54:30;;;;;;;11.83;0.60;;;;;;;8.61;57.78;99463.22;5090244;28;20771;-77
2024/02/23 09:56:57;;;;;;;0.30;0.20;;;;;;;8.54;57.57;99475.50;5089652;28;20226;-75
2024/02/23 09:59:28;;;;;;;0.93;0.40;;;;;;;8.60;58.26;99451.06;5090545;28;20223;-75
2024/02/23 10:01:54;;;;;;;1.10;0.60;;;;;;;8.43;57.69;99448.94;5093176;28;20240;-76
2024/02/23 10:04:21;;;;;;;3.40;0.73;;;;;;;8.33;57.21;99476.88;5089914;28;20220;-75
2024/02/23 10:06:47;;;;;;;5.33;0.50;;;;;;;8.27;57.35;99472.69;5090850;28;20630;-76
2024/02/23 10:09:14;;;;;;;0.57;0.40;;;;;;;8.22;58.04;99460.69;5094249;28;20257;-75
2024/02/23 10:11:40;;;;;;;0.43;0.20;;;;;;;8.44;58.46;99453.22;5094109;28;20196;-75
2024/02/23 10:14:09;;;;;;;1.27;0.40;;;;;;;8.27;57.78;99448.44;5086058;28;20657;-75
2024/02/23 10:16:35;;;;;;;0.80;0.70;;;;;;;8.43;57.30;99461.94;5094318;28;20245;-75
2024/02/23 10:19:02;;;;;;;0.50;0.50;;;;;;;8.48;56.87;99465.25;5094606;28;20519;-76
2024/02/23 10:21:28;;;;;;;3.83;0.60;;;;;;;8.52;56.42;99491.16;5093305;28;20288;-76
2024/02/23 10:23:56;;;;;;;1.47;0.40;;;;;;;8.69;56.35;99503.72;5094495;28;20223;-77
2024/02/23 10:26:22;;;;;;;0.73;0.50;;;;;;;8.49;56.94;99512.03;5093130;28;20204;-77
2024/02/23 10:28:50;;;;;;;1.20;0.50;;;;;;;8.52;55.22;99505.91;5092962;28;20205;-77
2024/02/23 10:31:18;;;;;;;0.97;0.60;;;;;;;8.86;57.30;99520.63;5087661;28;20196;-77
2024/02/23 10:33:47;;;;;;;1.43;0.43;;;;;;;8.88;56.06;99505.81;5094084;28;20220;-75
2024/02/23 10:36:16;;;;;;;1.73;0.60;;;;;;;9.14;57.08;99513.78;5092792;28;20200;-76
2024/02/23 10:38:46;;;;;;;1.40;0.57;;;;;;;9.32;57.17;99507.19;5093357;28;20725;-75
2024/02/23 10:41:14;;;;;;;0.83;0.40;;;;;;;9.13;54.09;99535.50;5092862;28;20233;-76
2024/02/23 10:43:44;;;;;;;3.13;0.70;;;;;;;9.34;55.53;99552.28;5094052;28;20223;-74
2024/02/23 10:46:13;;;;;;;1.70;0.50;;;;;;;9.34;54.36;99551.44;5092576;28;20273;-75
2024/02/23 10:48:41;;;;;;;1.23;1.00;;;;;;;9.34;54.86;99567.91;5093297;28;20228;-76
2024/02/23 10:51:09;;;;;;;1.40;0.40;;;;;;;8.98;53.19;99616.63;5093600;28;20192;-75
2024/02/23 10:53:35;;;;;;;1.43;0.60;;;;;;;8.90;52.86;99614.22;5094069;28;20216;-75
2024/02/23 10:56:05;;;;;;;1.60;0.50;;;;;;;9.07;53.27;99625.94;5092943;28;20205;-76
2024/02/23 10:58:31;;;;;;;1.30;0.47;;;;;;;9.00;52.62;99658.22;5093926;28;20205;-75
2024/02/23 11:01:02;;;;;;;1.10;0.43;;;;;;;9.12;53.79;99661.38;5093687;28;20605;-76
2024/02/23 11:03:29;;;;;;;0.93;0.60;;;;;;;9.30;54.15;99656.59;5093661;28;20223;-75
2024/02/23 11:05:57;;;;;;;2.77;0.60;;;;;;;9.27;53.82;99633.22;5093535;28;20212;-75
2024/02/23 11:08:23;;;;;;;0.53;0.40;;;;;;;9.45;54.09;99629.25;5093301;28;20341;-77
2024/02/23 11:10:50;;;;;;;1.13;0.73;;;;;;;9.44;52.95;99649.25;5092534;28;20281;-74
2024/02/23 11:13:17;;;;;;;1.20;0.50;;;;;;;9.46;51.72;99657.88;5092371;28;20224;-76
2024/02/23 11:15:43;;;;;;;2.40;0.73;;;;;;;9.09;52.34;99697.88;5092944;28;20196;-75
2024/02/23 11:18:22;;;;;;;2.20;0.73;;;;;;;9.39;53.16;99676.31;5092670;28;20850;-76
2024/02/23 11:20:55;;;;;;;2.33;0.80;;;;;;;9.39;52.39;99673.72;5092965;28;20220;-75
2024/02/23 11:23:22;;;;;;;0.90;0.40;;;;;;;9.08;52.29;99683.16;5092412;28;20255;-76
2024/02/23 11:26:00;;;;;;;1.20;0.57;;;;;;;9.34;53.32;99668.63;5093145;28;20207;-75
2024/02/23 11:28:26;;;;;;;1.03;0.53;;;;;;;9.52;53.10;99656.88;5091755;28;20295;-75
2024/02/23 11:30:54;;;;;;;1.30;0.40;;;;;;;9.54;53.30;99665.50;5093552;28;20281;-76
2024/02/23 11:33:27;;;;;;;1.80;0.77;;;;;;;9.64;53.04;99666.09;5092322;28;20233;-77
2024/02/23 11:35:55;;;;;;;2.00;0.40;;;;;;;9.51;52.02;99675.97;5093669;28;20277;-76
2024/02/23 11:38:23;;;;;;;0.63;0.50;;;;;;;9.64;53.26;99671.31;5092830;28;20672;-76
2024/02/23 11:40:49;;;;;;;0.83;0.50;;;;;;;9.40;51.42;99678.88;5091344;28;20229;-76